Jacksonville, FL

7:09 AM EST on December 05, 2016 (GMT -0500)
Jacksonville International | | Change Station

Elev 30 ft 30.49 °N, 81.69 °W | Updated 13 minutes ago

Scattered Clouds
Scattered Clouds
66 °F
Feels Like 66 °F
N
6
Wind Variable Wind from South

Today
High -- | Low -- °F
--% Chance of Precip.
Yesterday
High -- | Low -- °F
Precip. -- in
Pressure 29.99 in
Visibility 9.0 miles
Clouds Few 3500 ft
Few 13000 ft
Scattered Clouds 25000 ft
Dew Point 66 °F
Humidity 100%
Rainfall 0.00 in
Snow Depth Not available.
7:09 AM 5:25 PM
Waxing Crescent, 31% visible
METAR KJAX 051156Z 19005KT 9SM FEW035 FEW130 SCT250 19/19 A2998 RMK AO2 SLP153 T01890189 10206 20183 53003 $
Pressure 29.99 in
Visibility 9.0 miles
Clouds Few 3500 ft
Few 13000 ft
Scattered Clouds 25000 ft
Dew Point 66 °F
Humidity 100%
Rainfall 0.00 in
Snow Depth Not available.
7:09 AM 5:25 PM
Waxing Crescent, 31% visible
METAR KJAX 051156Z 19005KT 9SM FEW035 FEW130 SCT250 19/19 A2998 RMK AO2 SLP153 T01890189 10206 20183 53003 $

10-Day Weather Forecast

Almanac

Astronomy

Dec. 05, 2016 Rise Set
Actual Time
Civil Twilight
Nautical Twilight
Astronomical Twilight
Moon
Length of Visible Light
Length of Day
Tomorrow will be .
, % of the Moon is Illuminated

Today's Extremes

State Highs State Lows

Community

WunderPhotos

Upload Photos

1,955,777 photos uploaded!

WunderBlog® & News

Nearby

Air Quality

  Air Quality AQ Index Pollutant
Not available.

Snow Depth

Station Depth Elevation

Earthquake Activity

City Distance Mag. Time & Date
Minimum magnitude displayed is 2.5.

Coastal Water Temperatures

Place Temperature

Stations

Nearby Weather Stations

Station Location Temp. Windchill Dew Point Humidity Wind Precip. Elev Updated Type
                   

Watches & Warnings

There are currently no watches in effect.